createdAt,value
2017-12-20T00:01:18.553Z,5.40
2017-12-20T00:03:46.234Z,5.40
2017-12-20T00:06:16.596Z,5.40
2017-12-20T00:08:47.661Z,5.40
2017-12-20T00:11:15.100Z,5.40
2017-12-20T00:13:42.542Z,5.30
2017-12-20T00:16:10.503Z,5.30
2017-12-20T00:18:37.974Z,5.30
2017-12-20T00:21:05.434Z,5.30
2017-12-20T00:23:32.866Z,5.30
2017-12-20T00:26:00.757Z,5.20
2017-12-20T00:28:28.223Z,5.30
2017-12-20T00:30:55.670Z,5.30
2017-12-20T00:33:23.141Z,5.30
2017-12-20T00:35:50.709Z,5.30
2017-12-20T00:38:18.270Z,5.20
2017-12-20T00:40:45.728Z,5.30
2017-12-20T00:43:13.165Z,5.30
2017-12-20T00:45:40.602Z,5.40
2017-12-20T00:48:08.621Z,5.40
2017-12-20T00:50:36.097Z,5.40
2017-12-20T00:53:03.541Z,5.40
2017-12-20T00:55:31.520Z,5.40
2017-12-20T00:57:58.957Z,5.50
2017-12-20T01:00:26.453Z,5.50
2017-12-20T01:02:53.901Z,5.50
2017-12-20T01:05:21.345Z,5.50
2017-12-20T01:07:48.793Z,5.50
2017-12-20T01:10:16.526Z,5.50
2017-12-20T01:12:44.362Z,5.50
2017-12-20T01:15:11.809Z,5.50
2017-12-20T01:17:39.513Z,5.50
2017-12-20T01:20:07.245Z,5.50
2017-12-20T01:22:34.736Z,5.50
2017-12-20T01:25:02.593Z,5.50
2017-12-20T01:27:30.072Z,5.60
2017-12-20T01:29:57.510Z,5.60
2017-12-20T01:32:24.965Z,5.60
2017-12-20T01:34:52.455Z,5.60
2017-12-20T01:37:20.284Z,5.60
2017-12-20T01:39:47.830Z,5.70
2017-12-20T01:42:15.244Z,5.70
2017-12-20T01:44:43.040Z,5.70
2017-12-20T01:47:10.966Z,5.70
2017-12-20T01:49:38.405Z,5.70
2017-12-20T01:52:06.020Z,5.70
2017-12-20T01:54:33.481Z,5.70
2017-12-20T01:57:00.925Z,5.70
2017-12-20T01:59:28.792Z,5.70
2017-12-20T02:01:56.230Z,5.60
2017-12-20T02:04:23.810Z,5.60
2017-12-20T02:06:51.285Z,5.60
2017-12-20T02:09:18.726Z,5.60
2017-12-20T02:11:46.173Z,5.60
2017-12-20T02:14:13.612Z,5.60
2017-12-20T02:16:41.060Z,5.60
2017-12-20T02:19:08.513Z,5.60
2017-12-20T02:21:35.953Z,5.60
2017-12-20T02:24:03.408Z,5.60
2017-12-20T02:26:30.962Z,5.60
2017-12-20T02:28:58.401Z,5.60
2017-12-20T02:31:25.857Z,5.60
2017-12-20T02:33:53.327Z,5.50
2017-12-20T02:36:20.786Z,5.50
2017-12-20T02:38:48.218Z,5.40
2017-12-20T02:41:15.660Z,5.40
2017-12-20T02:43:43.289Z,5.40
2017-12-20T02:46:10.732Z,5.40
2017-12-20T02:48:38.221Z,5.40
2017-12-20T02:51:05.677Z,5.50
2017-12-20T02:53:33.111Z,5.50
2017-12-20T02:56:00.579Z,5.50
2017-12-20T02:58:28.008Z,5.50
2017-12-20T03:00:56.473Z,5.50
2017-12-20T03:03:23.908Z,5.40
2017-12-20T03:05:51.357Z,5.40
2017-12-20T03:08:18.809Z,5.40
2017-12-20T03:10:46.252Z,5.40
2017-12-20T03:13:13.701Z,5.40
2017-12-20T03:15:41.144Z,5.30
2017-12-20T03:18:09.354Z,5.40
2017-12-20T03:20:36.805Z,5.30
2017-12-20T03:23:04.257Z,5.40
2017-12-20T03:25:31.768Z,5.50
2017-12-20T03:27:59.202Z,5.60
2017-12-20T03:30:26.708Z,5.60
2017-12-20T03:32:54.452Z,5.60
2017-12-20T03:35:21.924Z,5.70
2017-12-20T03:37:49.886Z,5.70
2017-12-20T03:40:17.865Z,5.70
2017-12-20T03:42:45.300Z,5.70
2017-12-20T03:45:12.745Z,5.70
2017-12-20T03:47:40.189Z,5.70
2017-12-20T03:50:07.859Z,5.70
2017-12-20T03:52:35.279Z,5.80
2017-12-20T03:55:02.726Z,5.80
2017-12-20T03:57:30.285Z,5.80
2017-12-20T03:59:57.737Z,5.80
2017-12-20T04:02:25.422Z,5.80
2017-12-20T04:04:52.850Z,5.80
2017-12-20T04:07:20.296Z,5.80
2017-12-20T04:09:47.742Z,5.80
2017-12-20T04:12:15.178Z,5.80
2017-12-20T04:14:42.646Z,5.80
2017-12-20T04:17:10.088Z,5.70
2017-12-20T04:19:37.965Z,5.70
2017-12-20T04:22:05.417Z,5.60
2017-12-20T04:24:32.862Z,5.60
2017-12-20T04:27:00.325Z,5.50
2017-12-20T04:29:29.241Z,5.50
2017-12-20T04:31:57.003Z,5.50
2017-12-20T04:34:24.873Z,5.50
2017-12-20T04:36:52.309Z,5.50
2017-12-20T04:39:20.088Z,5.50
2017-12-20T04:41:47.518Z,5.60
2017-12-20T04:44:16.049Z,5.60
2017-12-20T04:46:43.547Z,5.60
2017-12-20T04:49:10.973Z,5.70
2017-12-20T04:51:38.421Z,5.70
2017-12-20T04:54:05.867Z,5.80
2017-12-20T04:56:33.869Z,5.70
2017-12-20T04:59:01.351Z,5.70
2017-12-20T05:01:28.785Z,5.70
2017-12-20T05:03:56.233Z,5.70
2017-12-20T05:06:24.332Z,5.60
2017-12-20T05:08:51.785Z,5.60
2017-12-20T05:11:19.656Z,5.60
2017-12-20T05:13:47.205Z,5.60
2017-12-20T05:16:14.926Z,5.70
2017-12-20T05:18:42.376Z,5.70
2017-12-20T05:21:13.446Z,5.70
2017-12-20T05:23:41.672Z,5.80
2017-12-20T05:26:09.125Z,5.70
2017-12-20T05:28:36.588Z,5.70
2017-12-20T05:31:04.048Z,5.80
2017-12-20T05:33:31.730Z,5.80
2017-12-20T05:35:59.205Z,5.80
2017-12-20T05:38:26.940Z,5.80
2017-12-20T05:40:54.398Z,5.80
2017-12-20T05:43:21.846Z,5.80
2017-12-20T05:45:49.461Z,5.80
2017-12-20T05:48:16.921Z,5.80
2017-12-20T05:50:44.366Z,5.70
2017-12-20T05:53:12.136Z,5.60
2017-12-20T05:55:39.570Z,5.60
2017-12-20T05:58:07.006Z,5.60
2017-12-20T06:00:34.510Z,5.60
2017-12-20T06:03:01.958Z,5.60
2017-12-20T06:05:29.401Z,5.60
2017-12-20T06:07:56.842Z,5.60
2017-12-20T06:10:24.284Z,5.60
2017-12-20T06:12:51.741Z,5.60
2017-12-20T06:15:19.181Z,5.70
2017-12-20T06:17:46.630Z,5.70
2017-12-20T06:20:14.098Z,5.80
2017-12-20T06:22:41.529Z,5.80
2017-12-20T06:25:08.982Z,5.90
2017-12-20T06:27:36.417Z,5.90
2017-12-20T06:30:04.392Z,5.90
2017-12-20T06:32:31.816Z,5.90
2017-12-20T06:34:59.264Z,5.90
2017-12-20T06:37:26.732Z,6.00
2017-12-20T06:39:54.213Z,6.00
2017-12-20T06:42:21.682Z,6.00
2017-12-20T06:44:49.145Z,6.00
2017-12-20T06:47:16.592Z,6.00
2017-12-20T06:49:44.047Z,6.00
2017-12-20T06:52:11.650Z,5.90
2017-12-20T06:54:39.182Z,5.90
2017-12-20T06:57:06.638Z,5.90
2017-12-20T06:59:34.117Z,5.80
2017-12-20T07:02:01.573Z,5.80
2017-12-20T07:04:29.018Z,5.70
2017-12-20T07:06:57.102Z,5.70
2017-12-20T07:09:24.577Z,5.70
2017-12-20T07:11:52.425Z,5.70
2017-12-20T07:14:19.877Z,5.70
2017-12-20T07:16:47.340Z,5.70
2017-12-20T07:19:14.795Z,5.70
2017-12-20T07:21:42.228Z,5.80
2017-12-20T07:24:09.755Z,5.80
2017-12-20T07:26:37.201Z,5.80
2017-12-20T07:29:04.654Z,5.90
2017-12-20T07:31:32.526Z,5.90
2017-12-20T07:33:59.973Z,5.90
2017-12-20T07:36:27.554Z,5.90
2017-12-20T07:38:55.009Z,5.90
2017-12-20T07:41:22.492Z,5.90
2017-12-20T07:43:49.947Z,5.90
2017-12-20T07:46:17.493Z,5.90
2017-12-20T07:48:44.929Z,5.90
2017-12-20T07:51:16.322Z,5.90
2017-12-20T07:53:43.776Z,5.90
2017-12-20T07:56:11.296Z,6.00
2017-12-20T07:58:38.721Z,6.00
2017-12-20T08:01:06.774Z,6.00
2017-12-20T08:03:34.243Z,6.00
2017-12-20T08:06:01.718Z,6.10
2017-12-20T08:08:29.118Z,6.10
2017-12-20T08:10:56.568Z,6.10
2017-12-20T08:13:24.013Z,6.10
2017-12-20T08:15:53.294Z,6.10
2017-12-20T08:18:20.717Z,6.10
2017-12-20T08:20:48.165Z,6.10
2017-12-20T08:23:16.195Z,6.10
2017-12-20T08:25:43.625Z,6.10
2017-12-20T08:28:11.312Z,6.10
2017-12-20T08:30:38.756Z,6.10
2017-12-20T08:33:06.256Z,6.00
2017-12-20T08:35:33.701Z,6.00
2017-12-20T08:38:01.124Z,6.00
2017-12-20T08:40:29.233Z,6.00
2017-12-20T08:42:56.673Z,6.00
2017-12-20T08:45:24.155Z,6.00
2017-12-20T08:47:51.685Z,6.00
2017-12-20T08:50:19.120Z,6.00
2017-12-20T08:52:46.672Z,6.10
2017-12-20T08:55:14.114Z,6.10
2017-12-20T08:57:41.555Z,6.10
2017-12-20T09:00:09.038Z,6.10
2017-12-20T09:02:36.485Z,6.20
2017-12-20T09:05:03.932Z,6.20
2017-12-20T09:07:31.374Z,6.20
2017-12-20T09:09:58.810Z,6.20
2017-12-20T09:12:26.566Z,6.20
2017-12-20T09:14:54.464Z,6.30
2017-12-20T09:17:22.381Z,6.30
2017-12-20T09:19:49.865Z,6.30
2017-12-20T09:22:17.325Z,6.40
2017-12-20T09:24:44.780Z,6.40
2017-12-20T09:27:12.211Z,6.40
2017-12-20T09:29:39.661Z,6.40
2017-12-20T09:32:07.102Z,6.40
2017-12-20T09:34:34.641Z,6.40
2017-12-20T09:37:02.089Z,6.40
2017-12-20T09:39:29.621Z,6.40
2017-12-20T09:41:57.078Z,6.50
2017-12-20T09:44:24.881Z,6.50
2017-12-20T09:46:52.329Z,6.50
2017-12-20T09:49:19.775Z,6.50
2017-12-20T09:51:47.270Z,6.50
2017-12-20T09:54:14.734Z,6.40
2017-12-20T09:56:42.173Z,6.40
2017-12-20T09:59:09.622Z,6.40
2017-12-20T10:01:37.129Z,6.40
2017-12-20T10:04:04.570Z,6.40
2017-12-20T10:06:32.014Z,6.40
2017-12-20T10:08:59.469Z,6.30
2017-12-20T10:11:26.894Z,6.30
2017-12-20T10:13:54.572Z,6.30
2017-12-20T10:16:22.016Z,6.30
2017-12-20T10:18:49.464Z,6.20
2017-12-20T10:21:18.903Z,6.20
2017-12-20T10:23:46.331Z,6.20
2017-12-20T10:26:14.544Z,6.10
2017-12-20T10:28:42.255Z,6.10
2017-12-20T10:31:09.701Z,6.20
2017-12-20T10:33:37.455Z,6.20
2017-12-20T10:36:04.885Z,6.10
2017-12-20T10:38:32.346Z,6.00
2017-12-20T10:40:59.776Z,6.00
2017-12-20T10:43:27.217Z,6.00
2017-12-20T10:45:55.088Z,6.00
2017-12-20T10:48:22.536Z,5.90
2017-12-20T10:50:50.424Z,5.90
2017-12-20T10:53:17.880Z,5.80
2017-12-20T10:55:45.441Z,5.90
2017-12-20T10:58:12.880Z,5.90
2017-12-20T11:00:40.333Z,5.90
2017-12-20T11:03:08.122Z,6.00
2017-12-20T11:05:35.536Z,6.00
2017-12-20T11:08:03.440Z,6.00
2017-12-20T11:10:30.903Z,6.00
2017-12-20T11:12:58.492Z,6.00
2017-12-20T11:15:25.956Z,6.00
2017-12-20T11:17:53.401Z,5.90
2017-12-20T11:20:20.849Z,5.90
2017-12-20T11:22:48.301Z,5.90
2017-12-20T11:25:15.743Z,5.90
2017-12-20T11:27:43.184Z,5.90
2017-12-20T11:30:10.630Z,5.90
2017-12-20T11:32:38.202Z,5.90
2017-12-20T11:35:05.657Z,6.00
2017-12-20T11:37:33.101Z,6.00
2017-12-20T11:40:00.545Z,6.00
2017-12-20T11:42:28.005Z,6.00
2017-12-20T11:44:55.441Z,6.00
2017-12-20T11:47:23.664Z,6.00
2017-12-20T11:49:51.132Z,6.00
2017-12-20T11:52:18.568Z,6.00
2017-12-20T11:54:46.297Z,6.10
2017-12-20T11:57:13.734Z,6.10
2017-12-20T11:59:41.189Z,6.10
2017-12-20T12:02:08.634Z,6.20
2017-12-20T12:04:36.084Z,6.20
2017-12-20T12:07:03.537Z,6.30
2017-12-20T12:09:30.993Z,6.30
2017-12-20T12:11:58.449Z,6.30
2017-12-20T12:14:25.956Z,6.40
2017-12-20T12:16:53.387Z,6.40
2017-12-20T12:19:20.897Z,6.50
2017-12-20T12:21:48.680Z,6.60
2017-12-20T12:24:16.231Z,6.70
2017-12-20T12:26:43.673Z,6.70
2017-12-20T12:29:11.123Z,6.80
2017-12-20T12:31:38.607Z,6.90
2017-12-20T12:34:06.076Z,6.90
2017-12-20T12:36:33.533Z,7.00
2017-12-20T12:39:01.181Z,7.00
2017-12-20T12:41:28.626Z,7.00
2017-12-20T12:43:56.084Z,7.00
2017-12-20T12:46:23.527Z,7.00
2017-12-20T12:48:55.129Z,7.00
2017-12-20T12:51:22.892Z,7.00
2017-12-20T12:53:50.346Z,7.10
2017-12-20T12:56:17.815Z,7.10
2017-12-20T12:58:45.243Z,7.10
2017-12-20T13:01:12.749Z,7.10
2017-12-20T13:03:40.325Z,7.10
2017-12-20T13:06:07.761Z,7.10
2017-12-20T13:08:35.349Z,7.20
2017-12-20T13:11:02.785Z,7.20
2017-12-20T13:13:30.237Z,7.20
2017-12-20T13:15:57.691Z,7.30
2017-12-20T13:18:25.202Z,7.30
2017-12-20T13:20:53.046Z,7.30
2017-12-20T13:23:20.487Z,7.40
2017-12-20T13:25:47.949Z,7.40
2017-12-20T13:28:15.399Z,7.40
2017-12-20T13:30:43.265Z,7.40
2017-12-20T13:33:11.239Z,7.40
2017-12-20T13:35:38.690Z,7.50
2017-12-20T13:38:06.154Z,7.50
2017-12-20T13:40:33.590Z,7.50
2017-12-20T13:43:01.305Z,7.50
2017-12-20T13:45:28.865Z,7.50
2017-12-20T13:47:56.309Z,7.40
2017-12-20T13:50:23.778Z,7.50
2017-12-20T13:52:51.227Z,7.50
2017-12-20T13:55:18.934Z,7.50
2017-12-20T13:57:46.401Z,7.50
2017-12-20T14:00:13.833Z,7.50
2017-12-20T14:02:41.304Z,7.50
2017-12-20T14:05:09.086Z,7.40
2017-12-20T14:07:36.545Z,7.40
2017-12-20T14:10:04.010Z,7.40
2017-12-20T14:12:31.460Z,7.30
2017-12-20T14:14:58.918Z,7.30
2017-12-20T14:17:26.405Z,7.30
2017-12-20T14:19:53.845Z,7.30
2017-12-20T14:22:21.308Z,7.30
2017-12-20T14:24:48.764Z,7.30
2017-12-20T14:27:16.229Z,7.40
2017-12-20T14:29:43.785Z,7.40
2017-12-20T14:32:11.228Z,7.30
2017-12-20T14:34:38.681Z,7.30
2017-12-20T14:37:06.189Z,7.20
2017-12-20T14:39:33.641Z,7.10
2017-12-20T14:42:01.215Z,7.00
2017-12-20T14:44:28.710Z,7.00
2017-12-20T14:46:56.540Z,6.90
2017-12-20T14:49:23.981Z,6.90
2017-12-20T14:51:52.053Z,6.90
2017-12-20T14:54:19.505Z,6.80
2017-12-20T14:56:47.201Z,6.80
2017-12-20T14:59:14.945Z,6.80
2017-12-20T15:01:42.381Z,6.90
2017-12-20T15:04:09.815Z,6.90
2017-12-20T15:06:37.264Z,6.90
2017-12-20T15:09:05.038Z,6.80
2017-12-20T15:11:32.490Z,6.80
2017-12-20T15:13:59.969Z,6.70
2017-12-20T15:16:27.430Z,6.70
2017-12-20T15:18:58.143Z,6.60
2017-12-20T15:21:25.821Z,6.60
2017-12-20T15:23:53.613Z,6.60
2017-12-20T15:26:21.057Z,6.60
2017-12-20T15:28:48.612Z,6.50
2017-12-20T15:31:16.064Z,6.60
2017-12-20T15:33:43.505Z,6.60
2017-12-20T15:36:11.918Z,6.60
2017-12-20T15:38:39.691Z,6.60
2017-12-20T15:41:07.141Z,6.60
2017-12-20T15:43:34.609Z,6.50
2017-12-20T15:46:02.059Z,6.50
2017-12-20T15:48:29.548Z,6.50
2017-12-20T15:50:56.997Z,6.50
2017-12-20T15:53:24.870Z,6.50
2017-12-20T15:55:52.334Z,6.50
2017-12-20T15:58:19.785Z,6.50
2017-12-20T16:00:47.258Z,6.40
2017-12-20T16:03:14.821Z,6.40
2017-12-20T16:05:42.269Z,6.40
2017-12-20T16:08:10.049Z,6.40
2017-12-20T16:10:37.493Z,6.40
2017-12-20T16:13:04.954Z,6.40
2017-12-20T16:15:32.416Z,6.40
2017-12-20T16:17:59.858Z,6.30
2017-12-20T16:20:27.301Z,6.30
2017-12-20T16:22:54.754Z,6.30
2017-12-20T16:25:22.232Z,6.30
2017-12-20T16:27:50.052Z,6.30
2017-12-20T16:30:17.507Z,6.30
2017-12-20T16:32:44.954Z,6.30
2017-12-20T16:35:12.416Z,6.30
2017-12-20T16:37:39.869Z,6.30
2017-12-20T16:40:07.309Z,6.30
2017-12-20T16:42:34.761Z,6.30
2017-12-20T16:45:03.006Z,6.40
2017-12-20T16:47:30.461Z,6.30
2017-12-20T16:49:57.922Z,6.40
2017-12-20T16:52:25.397Z,6.40
2017-12-20T16:54:54.358Z,6.30
2017-12-20T16:57:21.801Z,6.30
2017-12-20T16:59:49.262Z,6.30
2017-12-20T17:02:16.998Z,6.30
2017-12-20T17:04:44.440Z,6.30
2017-12-20T17:07:11.877Z,6.20
2017-12-20T17:09:39.365Z,6.20
2017-12-20T17:12:07.122Z,6.20
2017-12-20T17:14:34.582Z,6.10
2017-12-20T17:17:02.035Z,6.20
2017-12-20T17:19:29.496Z,6.20
2017-12-20T17:21:56.947Z,6.20
2017-12-20T17:24:24.438Z,6.20
2017-12-20T17:26:51.909Z,6.30
2017-12-20T17:29:19.358Z,6.30
2017-12-20T17:31:46.818Z,6.30
2017-12-20T17:34:17.518Z,6.30
2017-12-20T17:36:45.525Z,6.30
2017-12-20T17:39:13.703Z,6.30
2017-12-20T17:41:41.350Z,6.30
2017-12-20T17:44:08.793Z,6.30
2017-12-20T17:46:36.245Z,6.30
2017-12-20T17:49:04.458Z,6.40
2017-12-20T17:51:31.917Z,6.30
2017-12-20T17:53:59.378Z,6.40
2017-12-20T17:56:26.836Z,6.40
2017-12-20T17:58:54.294Z,6.40
2017-12-20T18:01:21.726Z,6.40
2017-12-20T18:03:49.936Z,6.20
2017-12-20T18:06:18.905Z,6.20
2017-12-20T18:08:46.329Z,6.20
2017-12-20T18:11:13.781Z,6.20
2017-12-20T18:13:41.226Z,6.20
2017-12-20T18:16:08.686Z,6.10
2017-12-20T18:18:36.455Z,6.10
2017-12-20T18:21:04.754Z,6.00
2017-12-20T18:23:32.217Z,6.00
2017-12-20T18:25:59.655Z,6.00
2017-12-20T18:28:27.100Z,6.10
2017-12-20T18:30:54.524Z,6.10
2017-12-20T18:33:22.165Z,6.20
2017-12-20T18:35:49.827Z,6.20
2017-12-20T18:38:17.268Z,6.20
2017-12-20T18:40:44.732Z,6.20
2017-12-20T18:43:12.180Z,6.20
2017-12-20T18:45:39.625Z,6.20
2017-12-20T18:48:07.093Z,6.30
2017-12-20T18:50:34.598Z,6.30
2017-12-20T18:53:02.045Z,6.30
2017-12-20T18:55:29.483Z,6.30
2017-12-20T18:57:56.941Z,6.20
2017-12-20T19:00:24.416Z,6.10
2017-12-20T19:02:51.839Z,6.10
2017-12-20T19:05:19.389Z,6.10
2017-12-20T19:07:46.829Z,6.00
2017-12-20T19:10:14.265Z,6.00
2017-12-20T19:12:41.713Z,6.00
2017-12-20T19:15:09.168Z,6.00
2017-12-20T19:17:37.029Z,6.00
2017-12-20T19:20:04.647Z,6.10
2017-12-20T19:22:32.082Z,6.10
2017-12-20T19:24:59.770Z,6.10
2017-12-20T19:27:27.241Z,6.10
2017-12-20T19:29:54.871Z,6.20
2017-12-20T19:32:22.305Z,6.20
2017-12-20T19:34:50.506Z,6.40
2017-12-20T19:37:18.631Z,6.30
2017-12-20T19:39:46.068Z,6.40
2017-12-20T19:42:13.833Z,6.40
2017-12-20T19:44:41.289Z,6.40
2017-12-20T19:47:08.745Z,6.50
2017-12-20T19:49:36.185Z,6.50
2017-12-20T19:52:03.642Z,6.40
2017-12-20T19:54:31.095Z,6.50
2017-12-20T19:56:58.912Z,6.40
2017-12-20T19:59:26.372Z,6.40
2017-12-20T20:01:54.248Z,6.40
2017-12-20T20:04:21.705Z,6.30
2017-12-20T20:06:49.166Z,6.30
2017-12-20T20:09:16.613Z,6.30
2017-12-20T20:11:44.300Z,6.30
2017-12-20T20:14:11.780Z,6.30
2017-12-20T20:16:39.214Z,6.30
2017-12-20T20:19:06.902Z,6.30
2017-12-20T20:21:34.335Z,6.30
2017-12-20T20:24:01.829Z,6.30
2017-12-20T20:26:29.681Z,6.30
2017-12-20T20:28:57.552Z,6.30
2017-12-20T20:31:25.425Z,6.30
2017-12-20T20:33:52.936Z,6.30
2017-12-20T20:36:20.698Z,6.30
2017-12-20T20:38:48.319Z,6.40
2017-12-20T20:41:15.789Z,6.40
2017-12-20T20:43:43.782Z,6.40
2017-12-20T20:46:11.226Z,6.40
2017-12-20T20:48:38.685Z,6.50
2017-12-20T20:51:06.163Z,6.50
2017-12-20T20:53:33.889Z,6.50
2017-12-20T20:56:01.337Z,6.50
2017-12-20T20:58:28.791Z,6.60
2017-12-20T21:00:56.233Z,6.60
2017-12-20T21:03:23.686Z,6.50
2017-12-20T21:05:51.164Z,6.60
2017-12-20T21:08:18.810Z,6.60
2017-12-20T21:10:46.325Z,6.60
2017-12-20T21:13:13.750Z,6.60
2017-12-20T21:15:41.569Z,6.70
2017-12-20T21:18:09.113Z,6.70
2017-12-20T21:20:36.677Z,6.70
2017-12-20T21:23:04.123Z,6.70
2017-12-20T21:25:32.932Z,6.80
2017-12-20T21:28:00.361Z,6.80
2017-12-20T21:30:27.960Z,6.80
2017-12-20T21:32:55.384Z,6.80
2017-12-20T21:35:22.841Z,6.80
2017-12-20T21:37:50.281Z,6.80
2017-12-20T21:40:17.820Z,6.80
2017-12-20T21:42:45.279Z,6.80
2017-12-20T21:45:12.731Z,6.80
2017-12-20T21:47:40.194Z,6.80
2017-12-20T21:50:07.624Z,6.80
2017-12-20T21:52:35.091Z,6.80
2017-12-20T21:55:03.105Z,6.90
2017-12-20T21:57:30.572Z,6.90
2017-12-20T21:59:58.006Z,6.90
2017-12-20T22:02:25.450Z,6.90
2017-12-20T22:04:52.920Z,6.90
2017-12-20T22:07:20.374Z,6.90
2017-12-20T22:09:48.089Z,7.00
2017-12-20T22:12:15.535Z,7.00
2017-12-20T22:14:42.990Z,7.00
2017-12-20T22:17:10.446Z,7.10
2017-12-20T22:19:38.104Z,7.00
2017-12-20T22:22:05.562Z,7.00
2017-12-20T22:24:33.156Z,7.00
2017-12-20T22:27:00.613Z,7.10
2017-12-20T22:29:28.110Z,7.10
2017-12-20T22:31:55.548Z,7.10
2017-12-20T22:34:23.425Z,7.10
2017-12-20T22:36:50.880Z,7.10
2017-12-20T22:39:18.554Z,7.10
2017-12-20T22:41:46.016Z,7.10
2017-12-20T22:44:13.499Z,7.10
2017-12-20T22:46:41.059Z,7.10
2017-12-20T22:49:08.898Z,7.20
2017-12-20T22:51:36.336Z,7.20
2017-12-20T22:54:04.347Z,7.20
2017-12-20T22:56:31.807Z,7.20
2017-12-20T22:58:59.339Z,7.20
2017-12-20T23:01:26.777Z,7.20
2017-12-20T23:03:54.552Z,7.20
2017-12-20T23:06:22.836Z,7.20
2017-12-20T23:08:50.274Z,7.20
2017-12-20T23:11:18.498Z,7.20
2017-12-20T23:13:45.971Z,7.10
2017-12-20T23:16:13.514Z,7.10
2017-12-20T23:18:40.971Z,7.10
2017-12-20T23:21:08.414Z,7.10
2017-12-20T23:23:35.898Z,7.10
2017-12-20T23:26:03.337Z,7.10
2017-12-20T23:28:31.041Z,7.10
2017-12-20T23:30:58.557Z,7.20
2017-12-20T23:33:25.968Z,7.20
2017-12-20T23:35:53.427Z,7.20
2017-12-20T23:38:20.885Z,7.30
2017-12-20T23:40:48.325Z,7.30
2017-12-20T23:43:15.814Z,7.20
2017-12-20T23:45:43.281Z,7.20
2017-12-20T23:48:10.732Z,7.20
2017-12-20T23:50:38.210Z,7.20
2017-12-20T23:53:05.648Z,7.30
2017-12-20T23:55:33.106Z,7.30
2017-12-20T23:58:01.204Z,7.30
